createdAt,value
2023-03-11T00:01:17.432Z,1.87
2023-03-11T00:03:50.823Z,2.20
2023-03-11T00:06:19.276Z,2.10
2023-03-11T00:08:47.815Z,1.97
2023-03-11T00:11:16.402Z,2.17
2023-03-11T00:13:44.790Z,1.90
2023-03-11T00:16:13.325Z,2.17
2023-03-11T00:18:42.041Z,2.37
2023-03-11T00:21:18.626Z,2.50
2023-03-11T00:23:47.746Z,2.50
2023-03-11T00:26:16.271Z,2.47
2023-03-11T00:28:45.751Z,3.03
2023-03-11T00:31:19.477Z,2.50
2023-03-11T00:33:48.207Z,2.93
2023-03-11T00:36:36.052Z,5.03
2023-03-11T00:39:06.789Z,3.60
2023-03-11T00:41:36.070Z,3.13
2023-03-11T00:44:04.943Z,3.40
2023-03-11T00:46:33.851Z,3.70
2023-03-11T00:49:02.495Z,4.40
2023-03-11T00:51:33.850Z,4.30
2023-03-11T00:54:02.940Z,4.13
2023-03-11T00:56:36.550Z,4.27
2023-03-11T00:59:05.436Z,4.30
2023-03-11T01:01:34.028Z,5.47
2023-03-11T01:04:02.558Z,5.07
2023-03-11T01:06:44.512Z,6.37
2023-03-11T01:09:14.262Z,5.80
2023-03-11T01:11:43.799Z,7.77
2023-03-11T01:14:12.254Z,7.13
2023-03-11T01:16:40.884Z,7.97
2023-03-11T01:19:09.658Z,8.57
2023-03-11T01:21:38.283Z,8.93
2023-03-11T01:24:09.162Z,8.27
2023-03-11T01:26:38.788Z,9.17
2023-03-11T01:29:09.642Z,9.47
2023-03-11T01:31:38.058Z,9.37
2023-03-11T01:34:12.960Z,8.47
2023-03-11T01:36:41.943Z,8.60
2023-03-11T01:39:10.887Z,9.53
2023-03-11T01:41:39.829Z,9.17
2023-03-11T01:44:08.982Z,8.97
2023-03-11T01:47:00.089Z,8.60
2023-03-11T01:49:29.135Z,7.43
2023-03-11T01:52:03.800Z,8.73
2023-03-11T01:54:35.819Z,7.83
2023-03-11T01:57:08.712Z,8.47
2023-03-11T01:59:50.201Z,8.63
2023-03-11T02:02:25.181Z,11.27
2023-03-11T02:04:53.966Z,11.37
2023-03-11T02:07:25.288Z,13.17
2023-03-11T02:09:54.039Z,13.77
2023-03-11T02:12:23.280Z,11.33
2023-03-11T02:14:55.055Z,13.50
2023-03-11T02:17:23.762Z,15.57
2023-03-11T02:20:05.502Z,15.23
2023-03-11T02:22:34.880Z,14.23
2023-03-11T02:25:50.510Z,14.23
2023-03-11T02:28:21.825Z,14.27
2023-03-11T02:30:51.949Z,17.00
2023-03-11T02:33:21.247Z,15.70
2023-03-11T02:35:49.893Z,16.23
2023-03-11T02:38:18.842Z,13.87
2023-03-11T02:40:54.568Z,15.80
2023-03-11T02:43:48.514Z,13.33
2023-03-11T02:46:20.432Z,14.73
2023-03-11T02:48:52.286Z,14.30
2023-03-11T02:51:20.694Z,14.27
2023-03-11T02:53:54.357Z,16.37
2023-03-11T02:56:23.907Z,15.43
2023-03-11T02:58:55.171Z,16.07
2023-03-11T03:01:25.394Z,15.63
2023-03-11T03:03:53.801Z,16.30
2023-03-11T03:06:22.421Z,16.33
2023-03-11T03:08:50.914Z,17.27
2023-03-11T03:11:19.393Z,15.97
2023-03-11T03:13:47.828Z,18.37
2023-03-11T03:16:16.293Z,19.30
2023-03-11T03:18:44.715Z,17.87
2023-03-11T03:21:13.112Z,19.27
2023-03-11T03:23:41.677Z,18.70
2023-03-11T03:26:11.218Z,19.50
2023-03-11T03:28:39.604Z,17.07
2023-03-11T03:31:10.387Z,17.23
2023-03-11T03:33:39.200Z,17.13
2023-03-11T03:36:09.855Z,15.23
2023-03-11T03:38:38.494Z,16.30
2023-03-11T03:41:07.277Z,14.87
2023-03-11T03:43:35.712Z,16.33
2023-03-11T03:46:06.516Z,18.87
2023-03-11T03:48:35.432Z,17.87
2023-03-11T03:51:10.998Z,16.23
2023-03-11T03:53:39.918Z,15.80
2023-03-11T03:56:17.139Z,19.90
2023-03-11T03:58:45.994Z,16.97
2023-03-11T04:01:14.918Z,18.07
2023-03-11T04:03:44.106Z,19.87
2023-03-11T04:06:23.064Z,19.27
2023-03-11T04:08:53.693Z,20.00
2023-03-11T04:11:22.640Z,18.63
2023-03-11T04:13:51.092Z,16.47
2023-03-11T04:16:25.186Z,16.40
2023-03-11T04:18:53.757Z,15.37
2023-03-11T04:21:22.531Z,17.03
2023-03-11T04:23:51.080Z,16.23
2023-03-11T04:26:19.523Z,16.07
2023-03-11T04:28:47.952Z,15.67
2023-03-11T04:31:16.553Z,16.43
2023-03-11T04:33:45.135Z,14.53
2023-03-11T04:36:14.128Z,16.13
2023-03-11T04:38:42.507Z,15.87
2023-03-11T04:41:11.212Z,14.23
2023-03-11T04:43:39.727Z,12.63
2023-03-11T04:46:08.388Z,13.00
2023-03-11T04:48:36.841Z,13.67
2023-03-11T04:51:05.536Z,13.50
2023-03-11T04:53:33.996Z,16.07
2023-03-11T04:56:02.498Z,12.83
2023-03-11T04:58:30.912Z,13.13
2023-03-11T05:00:59.414Z,12.23
2023-03-11T05:03:27.877Z,14.70
2023-03-11T05:05:57.576Z,12.57
2023-03-11T05:08:26.151Z,15.07
2023-03-11T05:10:55.024Z,15.83
2023-03-11T05:13:23.663Z,16.70
2023-03-11T05:15:52.092Z,13.60
2023-03-11T05:18:20.494Z,13.67
2023-03-11T05:20:49.569Z,15.33
2023-03-11T05:23:18.090Z,15.93
2023-03-11T05:25:47.043Z,16.87
2023-03-11T05:28:15.479Z,15.73
2023-03-11T05:30:43.820Z,16.07
2023-03-11T05:33:12.309Z,16.37
2023-03-11T05:35:40.942Z,16.40
2023-03-11T05:38:09.442Z,14.50
2023-03-11T05:40:37.869Z,16.23
2023-03-11T05:43:06.425Z,16.17
2023-03-11T05:45:35.313Z,16.13
2023-03-11T05:48:03.948Z,16.07
2023-03-11T05:50:32.428Z,17.77
2023-03-11T05:53:00.829Z,17.63
2023-03-11T05:55:29.273Z,16.07
2023-03-11T05:57:57.696Z,16.67
2023-03-11T06:00:29.057Z,17.43
2023-03-11T06:02:57.470Z,16.27
2023-03-11T06:05:25.987Z,14.63
2023-03-11T06:07:54.555Z,16.20
2023-03-11T06:10:22.976Z,15.23
2023-03-11T06:12:51.640Z,11.50
2023-03-11T06:15:20.019Z,13.77
2023-03-11T06:17:48.686Z,12.60
2023-03-11T06:20:17.242Z,11.30
2023-03-11T06:22:46.059Z,11.83
2023-03-11T06:25:14.457Z,10.23
2023-03-11T06:27:44.527Z,10.53
2023-03-11T06:30:14.407Z,11.33
2023-03-11T06:32:46.411Z,10.37
2023-03-11T06:35:15.046Z,17.53
2023-03-11T06:37:43.569Z,14.30
2023-03-11T06:40:12.570Z,13.20
2023-03-11T06:42:41.217Z,12.37
2023-03-11T06:45:10.078Z,15.90
2023-03-11T06:47:38.576Z,23.27
2023-03-11T06:50:09.179Z,12.23
2023-03-11T06:52:38.143Z,12.10
2023-03-11T06:55:07.382Z,13.43
2023-03-11T06:57:35.963Z,10.33
2023-03-11T07:00:07.789Z,9.43
2023-03-11T07:02:36.234Z,10.97
2023-03-11T07:05:05.085Z,10.40
2023-03-11T07:07:33.732Z,15.93
2023-03-11T07:10:02.633Z,10.93
2023-03-11T07:12:31.202Z,12.40
2023-03-11T07:15:00.790Z,9.83
2023-03-11T07:17:29.616Z,8.87
2023-03-11T07:19:58.074Z,9.33
2023-03-11T07:22:26.573Z,9.33
2023-03-11T07:24:55.135Z,7.67
2023-03-11T07:27:23.551Z,9.10
2023-03-11T07:29:53.291Z,9.77
2023-03-11T07:32:21.792Z,13.40
2023-03-11T07:34:50.256Z,17.57
2023-03-11T07:37:18.811Z,17.40
2023-03-11T07:39:47.201Z,18.07
2023-03-11T07:42:18.524Z,16.23
2023-03-11T07:44:46.928Z,23.10
2023-03-11T07:47:15.461Z,14.23
2023-03-11T07:49:44.007Z,15.57
2023-03-11T07:52:12.472Z,8.77
2023-03-11T07:54:40.887Z,13.70
2023-03-11T07:57:13.020Z,9.30
2023-03-11T07:59:41.515Z,10.73
2023-03-11T08:02:12.152Z,10.87
2023-03-11T08:04:40.577Z,12.40
2023-03-11T08:07:09.188Z,9.47
2023-03-11T08:09:37.993Z,13.17
2023-03-11T08:12:06.722Z,10.00
2023-03-11T08:14:35.096Z,11.90
2023-03-11T08:17:03.672Z,10.13
2023-03-11T08:19:32.084Z,11.60
2023-03-11T08:22:04.203Z,10.17
2023-03-11T08:24:32.985Z,9.17
2023-03-11T08:27:01.715Z,8.00
2023-03-11T08:29:30.157Z,8.40
2023-03-11T08:31:58.712Z,8.80
2023-03-11T08:34:27.692Z,9.23
2023-03-11T08:36:56.605Z,7.27
2023-03-11T08:39:25.000Z,8.67
2023-03-11T08:41:53.654Z,5.77
2023-03-11T08:44:22.205Z,7.43
2023-03-11T08:46:50.634Z,7.17
2023-03-11T08:49:19.145Z,15.80
2023-03-11T08:51:47.560Z,12.33
2023-03-11T08:54:16.098Z,18.57
2023-03-11T08:56:44.614Z,9.07
2023-03-11T08:59:13.117Z,12.63
2023-03-11T09:01:42.835Z,11.13
2023-03-11T09:04:12.038Z,11.60
2023-03-11T09:06:45.053Z,18.30
2023-03-11T09:09:13.799Z,18.57
2023-03-11T09:11:42.214Z,11.07
2023-03-11T09:14:10.662Z,7.77
2023-03-11T09:16:39.111Z,11.13
2023-03-11T09:19:08.015Z,9.17
2023-03-11T09:21:38.033Z,7.70
2023-03-11T09:24:07.076Z,7.73
2023-03-11T09:26:36.626Z,6.80
2023-03-11T09:29:05.182Z,7.60
2023-03-11T09:31:33.799Z,6.83
2023-03-11T09:34:02.505Z,6.07
2023-03-11T09:36:30.991Z,7.63
2023-03-11T09:38:59.449Z,6.40
2023-03-11T09:41:33.261Z,7.43
2023-03-11T09:44:38.970Z,6.57
2023-03-11T09:47:53.632Z,7.77
2023-03-11T09:51:02.121Z,5.77
2023-03-11T09:53:34.210Z,6.87
2023-03-11T09:56:07.417Z,5.60
2023-03-11T09:58:43.265Z,5.80
2023-03-11T10:01:33.265Z,6.70
2023-03-11T10:04:17.229Z,6.40
2023-03-11T10:06:48.135Z,7.10
2023-03-11T10:09:40.041Z,6.63
2023-03-11T10:12:23.497Z,6.10
2023-03-11T10:15:57.320Z,6.97
2023-03-11T10:18:40.885Z,6.83
2023-03-11T10:21:34.055Z,7.50
2023-03-11T10:24:21.118Z,5.77
2023-03-11T10:27:03.217Z,6.23
2023-03-11T10:29:57.562Z,5.40
2023-03-11T10:32:41.108Z,6.23
2023-03-11T10:35:25.877Z,8.83
2023-03-11T10:38:07.599Z,6.10
2023-03-11T10:40:44.420Z,5.37
2023-03-11T10:43:33.920Z,7.03
2023-03-11T10:46:15.333Z,5.70
2023-03-11T10:48:43.789Z,6.47
2023-03-11T10:51:22.527Z,7.17
2023-03-11T10:53:57.590Z,6.97
2023-03-11T10:56:38.622Z,36.37
2023-03-11T10:59:25.379Z,28.83
2023-03-11T11:02:20.037Z,16.93
2023-03-11T11:04:48.437Z,9.70
2023-03-11T11:07:33.994Z,8.27
2023-03-11T11:10:26.572Z,6.20
2023-03-11T11:13:04.129Z,7.17
2023-03-11T11:15:55.656Z,5.90
2023-03-11T11:18:43.319Z,8.67
2023-03-11T11:21:32.713Z,6.67
2023-03-11T11:24:19.193Z,7.27
2023-03-11T11:27:28.614Z,6.87
2023-03-11T11:30:08.833Z,7.70
2023-03-11T11:32:41.395Z,5.27
2023-03-11T11:35:19.797Z,6.97
2023-03-11T11:37:52.828Z,9.47
2023-03-11T11:40:31.259Z,6.30
2023-03-11T11:43:07.330Z,6.33
2023-03-11T11:45:47.204Z,6.53
2023-03-11T11:49:05.494Z,5.07
2023-03-11T11:52:04.192Z,6.47
2023-03-11T11:54:54.258Z,6.20
2023-03-11T11:57:24.602Z,6.53
2023-03-11T11:59:53.241Z,6.30
2023-03-11T12:03:20.502Z,6.10
2023-03-11T12:06:00.256Z,5.83
2023-03-11T12:08:43.276Z,6.57
2023-03-11T12:11:27.971Z,6.63
2023-03-11T12:14:13.984Z,8.17
2023-03-11T12:17:07.827Z,6.57
2023-03-11T12:19:38.568Z,8.07
2023-03-11T12:22:18.516Z,5.10
2023-03-11T12:24:47.025Z,6.00
2023-03-11T12:27:26.664Z,5.67
2023-03-11T12:30:02.505Z,5.67
2023-03-11T12:32:44.183Z,5.87
2023-03-11T12:35:31.099Z,7.63
2023-03-11T12:38:02.738Z,17.57
2023-03-11T12:41:15.201Z,6.00
2023-03-11T12:43:43.683Z,5.40
2023-03-11T12:46:17.374Z,6.90
2023-03-11T12:48:50.218Z,5.70
2023-03-11T12:51:34.198Z,6.23
2023-03-11T12:54:36.315Z,6.87
2023-03-11T12:57:20.163Z,6.00
2023-03-11T13:00:58.108Z,6.33
2023-03-11T13:03:43.405Z,6.33
2023-03-11T13:06:33.049Z,6.87
2023-03-11T13:09:02.261Z,6.80
2023-03-11T13:11:33.482Z,6.53
2023-03-11T13:14:17.323Z,6.83
2023-03-11T13:16:46.423Z,8.93
2023-03-11T13:19:32.958Z,5.63
2023-03-11T13:22:03.784Z,6.30
2023-03-11T13:24:32.226Z,6.20
2023-03-11T13:27:03.352Z,4.77
2023-03-11T13:29:55.320Z,5.37
2023-03-11T13:32:26.713Z,5.20
2023-03-11T13:34:55.153Z,5.47
2023-03-11T13:37:46.053Z,5.60
2023-03-11T13:40:31.857Z,5.00
2023-03-11T13:43:05.616Z,5.37
2023-03-11T13:45:37.168Z,5.57
2023-03-11T13:48:09.436Z,5.17
2023-03-11T13:51:06.430Z,4.60
2023-03-11T13:53:44.364Z,4.93
2023-03-11T13:56:25.276Z,4.53
2023-03-11T13:58:53.721Z,5.10
2023-03-11T14:01:22.494Z,5.90
2023-03-11T14:03:50.985Z,4.57
2023-03-11T14:06:22.231Z,5.50
2023-03-11T14:08:59.440Z,6.00
2023-03-11T14:11:30.240Z,5.37
2023-03-11T14:13:58.746Z,5.93
2023-03-11T14:16:44.230Z,4.93
2023-03-11T14:19:20.124Z,3.30
2023-03-11T14:21:51.377Z,4.50
2023-03-11T14:24:31.764Z,4.43
2023-03-11T14:27:05.112Z,6.07
2023-03-11T14:29:42.568Z,4.87
2023-03-11T14:32:34.694Z,3.80
2023-03-11T14:35:03.655Z,4.13
2023-03-11T14:37:39.768Z,4.80
2023-03-11T14:40:35.677Z,3.97
2023-03-11T14:43:08.277Z,4.10
2023-03-11T14:45:39.012Z,3.40
2023-03-11T14:48:29.559Z,4.10
2023-03-11T14:51:00.034Z,4.90
2023-03-11T14:54:02.993Z,5.27
2023-03-11T14:56:32.551Z,3.40
2023-03-11T14:59:27.275Z,3.97
2023-03-11T15:02:00.831Z,4.73
2023-03-11T15:04:38.512Z,4.97
2023-03-11T15:07:07.292Z,4.00
2023-03-11T15:09:35.963Z,3.97
2023-03-11T15:12:06.247Z,5.50
2023-03-11T15:14:50.503Z,4.63
2023-03-11T15:17:36.494Z,3.10
2023-03-11T15:20:33.574Z,5.27
2023-03-11T15:23:07.745Z,2.37
2023-03-11T15:25:40.771Z,2.87
2023-03-11T15:28:37.896Z,2.67
2023-03-11T15:31:35.309Z,4.53
2023-03-11T15:34:35.375Z,3.43
2023-03-11T15:37:21.490Z,4.57
2023-03-11T15:39:53.232Z,5.30
2023-03-11T15:42:27.498Z,3.33
2023-03-11T15:45:09.752Z,5.93
2023-03-11T15:47:38.219Z,2.43
2023-03-11T15:50:40.173Z,3.90
2023-03-11T15:53:15.318Z,4.50
2023-03-11T15:55:43.914Z,3.90
2023-03-11T15:58:16.367Z,3.37
2023-03-11T16:00:54.190Z,4.20
2023-03-11T16:03:22.711Z,4.03
2023-03-11T16:05:51.322Z,3.50
2023-03-11T16:08:19.762Z,4.33
2023-03-11T16:10:48.249Z,2.57
2023-03-11T16:13:18.205Z,3.50
2023-03-11T16:15:47.195Z,5.53
2023-03-11T16:18:15.944Z,4.53
2023-03-11T16:20:51.367Z,3.13
2023-03-11T16:23:48.509Z,6.37
2023-03-11T16:26:19.050Z,4.20
2023-03-11T16:28:47.533Z,3.70
2023-03-11T16:31:16.103Z,4.83
2023-03-11T16:33:44.565Z,5.27
2023-03-11T16:36:13.398Z,5.47
2023-03-11T16:38:51.017Z,3.60
2023-03-11T16:41:19.593Z,3.00
2023-03-11T16:43:50.943Z,4.20
2023-03-11T16:46:19.544Z,3.97
2023-03-11T16:48:48.067Z,2.93
2023-03-11T16:51:16.631Z,3.50
2023-03-11T16:53:45.018Z,5.90
2023-03-11T16:56:13.725Z,4.73
2023-03-11T16:58:42.271Z,3.73
2023-03-11T17:01:14.064Z,3.73
2023-03-11T17:03:43.471Z,5.23
2023-03-11T17:06:12.448Z,6.50
2023-03-11T17:08:41.104Z,9.00
2023-03-11T17:11:28.379Z,9.40
2023-03-11T17:14:10.153Z,5.93
2023-03-11T17:16:44.920Z,5.53
2023-03-11T17:19:13.535Z,8.93
2023-03-11T17:21:42.095Z,8.47
2023-03-11T17:24:12.351Z,14.63
2023-03-11T17:26:41.156Z,7.23
2023-03-11T17:29:09.818Z,6.60
2023-03-11T17:31:38.345Z,6.57
2023-03-11T17:34:07.119Z,6.83
2023-03-11T17:36:35.580Z,4.47
2023-03-11T17:39:04.235Z,5.20
2023-03-11T17:41:32.855Z,5.77
2023-03-11T17:44:01.580Z,4.53
2023-03-11T17:46:30.214Z,10.40
2023-03-11T17:48:59.016Z,3.17
2023-03-11T17:51:27.998Z,3.90
2023-03-11T17:53:57.556Z,7.13
2023-03-11T17:56:26.299Z,5.83
2023-03-11T17:58:54.983Z,4.43
2023-03-11T18:01:29.330Z,5.10
2023-03-11T18:03:58.386Z,3.80
2023-03-11T18:06:27.099Z,4.73
2023-03-11T18:08:55.762Z,4.23
2023-03-11T18:11:28.133Z,3.90
2023-03-11T18:13:56.749Z,4.60
2023-03-11T18:16:29.942Z,7.23
2023-03-11T18:18:58.623Z,3.60
2023-03-11T18:21:32.040Z,2.97
2023-03-11T18:24:02.255Z,4.10
2023-03-11T18:26:31.762Z,5.43
2023-03-11T18:29:01.311Z,4.17
2023-03-11T18:31:31.306Z,2.83
2023-03-11T18:34:05.213Z,5.77
2023-03-11T18:36:37.540Z,6.43
2023-03-11T18:39:06.542Z,6.83
2023-03-11T18:41:36.886Z,8.17
2023-03-11T18:44:05.689Z,5.87
2023-03-11T18:46:34.742Z,6.70
2023-03-11T18:49:05.607Z,8.33
2023-03-11T18:51:34.622Z,6.60
2023-03-11T18:54:03.842Z,5.77
2023-03-11T18:56:32.540Z,5.17
2023-03-11T18:59:01.781Z,5.63
2023-03-11T19:01:30.842Z,5.70
2023-03-11T19:04:01.085Z,7.30
2023-03-11T19:06:30.163Z,5.03
2023-03-11T19:08:59.074Z,4.17
2023-03-11T19:11:27.787Z,5.43
2023-03-11T19:13:56.289Z,6.10
2023-03-11T19:16:27.191Z,7.77
2023-03-11T19:18:56.457Z,8.10
2023-03-11T19:21:25.913Z,10.07
2023-03-11T19:23:56.605Z,11.47
2023-03-11T19:26:43.127Z,9.13
2023-03-11T19:29:13.584Z,8.63
2023-03-11T19:31:43.505Z,6.83
2023-03-11T19:34:12.190Z,5.43
2023-03-11T19:36:40.656Z,7.03
2023-03-11T19:39:09.246Z,9.07
2023-03-11T19:41:37.784Z,7.10
2023-03-11T19:44:06.585Z,8.60
2023-03-11T19:46:36.450Z,6.63
2023-03-11T19:49:05.572Z,6.30
2023-03-11T19:51:48.615Z,8.07
2023-03-11T19:54:18.105Z,9.37
2023-03-11T19:56:48.127Z,8.03
2023-03-11T19:59:17.344Z,8.67
2023-03-11T20:01:45.994Z,6.20
2023-03-11T20:04:15.279Z,10.80
2023-03-11T20:06:44.912Z,10.50
2023-03-11T20:09:15.897Z,9.17
2023-03-11T20:11:45.878Z,9.40
2023-03-11T20:14:14.527Z,8.73
2023-03-11T20:16:43.418Z,13.07
2023-03-11T20:19:12.054Z,12.83
2023-03-11T20:21:40.935Z,13.60
2023-03-11T20:24:10.374Z,12.80
2023-03-11T20:26:39.118Z,15.50
2023-03-11T20:29:07.653Z,10.07
2023-03-11T20:31:36.547Z,9.23
2023-03-11T20:34:05.634Z,12.93
2023-03-11T20:36:35.550Z,16.10
2023-03-11T20:39:04.271Z,11.23
2023-03-11T20:41:38.368Z,11.23
2023-03-11T20:44:09.504Z,11.70
2023-03-11T20:46:38.136Z,8.20
2023-03-11T20:49:07.092Z,10.77
2023-03-11T20:51:35.627Z,12.10
2023-03-11T20:54:04.247Z,12.87
2023-03-11T20:56:32.892Z,11.50
2023-03-11T20:59:01.485Z,10.90
2023-03-11T21:01:32.242Z,10.73
2023-03-11T21:04:03.574Z,9.87
2023-03-11T21:06:38.415Z,8.73
2023-03-11T21:09:12.987Z,12.67
2023-03-11T21:11:41.757Z,12.03
2023-03-11T21:14:11.252Z,11.73
2023-03-11T21:16:39.838Z,12.03
2023-03-11T21:19:10.250Z,11.40
2023-03-11T21:21:38.931Z,9.87
2023-03-11T21:24:08.429Z,10.90
2023-03-11T21:26:37.543Z,7.97
2023-03-11T21:29:06.375Z,9.67
2023-03-11T21:31:35.213Z,9.33
2023-03-11T21:34:03.983Z,8.07
2023-03-11T21:36:32.565Z,10.07
2023-03-11T21:39:03.559Z,9.57
2023-03-11T21:41:32.787Z,8.90
2023-03-11T21:44:01.469Z,11.37
2023-03-11T21:46:32.940Z,8.10
2023-03-11T21:49:01.891Z,8.97
2023-03-11T21:51:31.054Z,10.13
2023-03-11T21:54:00.171Z,13.20
2023-03-11T21:56:29.029Z,14.90
2023-03-11T21:58:57.909Z,8.83
2023-03-11T22:01:26.462Z,9.27
2023-03-11T22:03:56.644Z,9.03
2023-03-11T22:06:25.277Z,7.87
2023-03-11T22:08:53.991Z,7.87
2023-03-11T22:11:22.498Z,9.47
2023-03-11T22:13:53.780Z,6.63
2023-03-11T22:16:24.870Z,7.10
2023-03-11T22:18:53.974Z,7.03
2023-03-11T22:21:22.728Z,6.10
2023-03-11T22:23:51.454Z,6.10
2023-03-11T22:26:19.916Z,6.97
2023-03-11T22:28:48.536Z,12.20
2023-03-11T22:31:18.984Z,5.67
2023-03-11T22:33:47.934Z,7.57
2023-03-11T22:36:16.436Z,6.97
2023-03-11T22:38:45.289Z,6.20
2023-03-11T22:41:20.318Z,8.17
2023-03-11T22:43:48.995Z,6.97
2023-03-11T22:46:17.533Z,8.10
2023-03-11T22:48:46.182Z,6.27
2023-03-11T22:51:14.958Z,13.87
2023-03-11T22:53:43.516Z,4.93
2023-03-11T22:56:15.273Z,6.50
2023-03-11T22:58:44.211Z,5.77
2023-03-11T23:01:12.888Z,6.00
2023-03-11T23:03:41.399Z,6.23
2023-03-11T23:06:15.160Z,5.30
2023-03-11T23:08:43.742Z,5.80
2023-03-11T23:11:15.739Z,5.70
2023-03-11T23:13:45.103Z,4.93
2023-03-11T23:16:20.388Z,5.00
2023-03-11T23:18:51.248Z,5.70
2023-03-11T23:21:34.207Z,6.97
2023-03-11T23:24:05.288Z,7.50
2023-03-11T23:26:36.045Z,6.30
2023-03-11T23:29:05.414Z,5.63
2023-03-11T23:31:33.928Z,7.10
2023-03-11T23:34:02.515Z,5.10
2023-03-11T23:36:31.326Z,7.10
2023-03-11T23:38:59.792Z,5.43
2023-03-11T23:41:29.173Z,7.53
2023-03-11T23:43:57.628Z,5.37
2023-03-11T23:46:26.306Z,5.00
2023-03-11T23:48:54.800Z,6.20
2023-03-11T23:51:23.618Z,5.93
2023-03-11T23:53:52.098Z,4.97
2023-03-11T23:56:20.841Z,10.17
2023-03-11T23:58:49.382Z,6.67
